createdAt,value
2022-10-01T00:00:16.898Z,7.78
2022-10-01T00:01:19.727Z,7.82
2022-10-01T00:02:22.024Z,7.83
2022-10-01T00:03:26.272Z,7.79
2022-10-01T00:04:28.456Z,7.77
2022-10-01T00:05:30.644Z,7.76
2022-10-01T00:06:32.868Z,7.75
2022-10-01T00:07:43.411Z,7.65
2022-10-01T00:08:48.564Z,7.72
2022-10-01T00:09:50.840Z,7.71
2022-10-01T00:10:53.260Z,7.71
2022-10-01T00:11:56.092Z,7.74
2022-10-01T00:12:58.894Z,7.76
2022-10-01T00:14:04.157Z,7.80
2022-10-01T00:15:13.379Z,7.80
2022-10-01T00:16:21.936Z,7.77
2022-10-01T00:17:24.297Z,7.83
2022-10-01T00:18:26.471Z,7.80
2022-10-01T00:19:28.862Z,7.90
2022-10-01T00:20:31.033Z,7.90
2022-10-01T00:21:33.481Z,7.93
2022-10-01T00:22:36.279Z,7.96
2022-10-01T00:23:38.945Z,7.93
2022-10-01T00:24:41.237Z,7.86
2022-10-01T00:25:43.659Z,7.94
2022-10-01T00:26:45.925Z,7.91
2022-10-01T00:27:48.190Z,7.88
2022-10-01T00:28:55.432Z,7.84
2022-10-01T00:29:57.702Z,7.90
2022-10-01T00:30:59.986Z,7.93
2022-10-01T00:32:02.265Z,7.97
2022-10-01T00:33:04.491Z,7.97
2022-10-01T00:34:06.987Z,7.96
2022-10-01T00:35:09.811Z,7.97
2022-10-01T00:36:12.114Z,7.94
2022-10-01T00:37:15.157Z,7.95
2022-10-01T00:38:17.293Z,7.90
2022-10-01T00:39:19.452Z,7.92
2022-10-01T00:40:21.928Z,7.92
2022-10-01T00:41:24.639Z,8.01
2022-10-01T00:42:26.853Z,7.97
2022-10-01T00:43:31.869Z,7.99
2022-10-01T00:44:37.051Z,7.88
2022-10-01T00:45:39.524Z,7.89
2022-10-01T00:46:45.209Z,7.91
2022-10-01T00:48:05.287Z,7.91
2022-10-01T00:49:12.983Z,7.89
2022-10-01T00:50:28.870Z,7.90
2022-10-01T00:51:38.434Z,7.80
2022-10-01T00:52:41.695Z,7.58
2022-10-01T00:53:45.484Z,7.63
2022-10-01T00:54:55.580Z,7.70
2022-10-01T00:55:59.923Z,7.70
2022-10-01T00:57:04.806Z,7.77
2022-10-01T00:58:09.113Z,7.78
2022-10-01T00:59:12.084Z,7.83
2022-10-01T01:00:14.864Z,7.86
2022-10-01T01:01:17.229Z,7.86
2022-10-01T01:02:19.693Z,7.88
2022-10-01T01:03:21.926Z,7.86
2022-10-01T01:04:24.124Z,7.86
2022-10-01T01:05:26.570Z,7.92
2022-10-01T01:06:29.359Z,7.93
2022-10-01T01:07:33.850Z,7.96
2022-10-01T01:08:36.111Z,7.91
2022-10-01T01:09:42.168Z,7.99
2022-10-01T01:11:03.883Z,8.05
2022-10-01T01:12:24.716Z,7.95
2022-10-01T01:13:55.780Z,7.95
2022-10-01T01:15:20.872Z,7.96
2022-10-01T01:16:33.940Z,8.00
2022-10-01T01:17:57.574Z,8.00
2022-10-01T01:19:12.784Z,7.99
2022-10-01T01:20:29.921Z,8.04
2022-10-01T01:21:41.143Z,8.03
2022-10-01T01:23:03.781Z,8.07
2022-10-01T01:24:08.609Z,8.11
2022-10-01T01:25:25.914Z,8.14
2022-10-01T01:26:54.081Z,8.11
2022-10-01T01:28:22.680Z,8.13
2022-10-01T01:29:32.613Z,8.14
2022-10-01T01:30:38.932Z,8.14
2022-10-01T01:31:48.695Z,8.24
2022-10-01T01:33:03.144Z,8.28
2022-10-01T01:34:12.387Z,8.31
2022-10-01T01:35:22.905Z,8.39
2022-10-01T01:36:33.185Z,8.46
2022-10-01T01:37:40.111Z,8.44
2022-10-01T01:38:51.902Z,8.47
2022-10-01T01:39:57.754Z,8.39
2022-10-01T01:41:02.244Z,8.44
2022-10-01T01:42:11.090Z,8.47
2022-10-01T01:43:18.495Z,8.49
2022-10-01T01:44:25.758Z,8.47
2022-10-01T01:45:30.692Z,8.55
2022-10-01T01:46:36.873Z,8.60
2022-10-01T01:47:42.096Z,8.64
2022-10-01T01:48:49.169Z,8.70
2022-10-01T01:49:52.711Z,8.72
2022-10-01T01:51:04.551Z,8.70
2022-10-01T01:52:17.187Z,8.61
2022-10-01T01:53:20.172Z,8.70
2022-10-01T01:54:22.492Z,8.70
2022-10-01T01:55:26.955Z,8.68
2022-10-01T01:56:31.077Z,8.60
2022-10-01T01:57:36.355Z,8.64
2022-10-01T01:58:39.199Z,8.72
2022-10-01T01:59:41.951Z,8.72
2022-10-01T02:00:44.964Z,8.71
2022-10-01T02:01:49.306Z,8.82
2022-10-01T02:02:53.818Z,8.76
2022-10-01T02:03:56.331Z,8.74
2022-10-01T02:05:07.132Z,8.66
2022-10-01T02:06:26.495Z,8.68
2022-10-01T02:07:48.863Z,8.73
2022-10-01T02:09:17.604Z,8.67
2022-10-01T02:10:57.681Z,8.68
2022-10-01T02:12:37.460Z,8.70
2022-10-01T02:14:01.732Z,8.77
2022-10-01T02:15:21.268Z,8.75
2022-10-01T02:16:32.309Z,8.84
2022-10-01T02:17:50.537Z,8.75
2022-10-01T02:19:03.714Z,8.70
2022-10-01T02:20:21.068Z,8.72
2022-10-01T02:21:40.436Z,8.69
2022-10-01T02:22:50.103Z,8.75
2022-10-01T02:24:03.322Z,8.68
2022-10-01T02:25:08.436Z,8.76
2022-10-01T02:26:17.764Z,8.75
2022-10-01T02:28:01.425Z,8.73
2022-10-01T02:29:08.151Z,8.83
2022-10-01T02:30:12.156Z,8.87
2022-10-01T02:31:16.459Z,8.72
2022-10-01T02:32:19.846Z,8.66
2022-10-01T02:33:27.575Z,8.74
2022-10-01T02:34:30.799Z,8.77
2022-10-01T02:35:34.761Z,8.75
2022-10-01T02:36:41.056Z,8.75
2022-10-01T02:37:45.775Z,8.78
2022-10-01T02:38:50.632Z,8.85
2022-10-01T02:39:56.233Z,8.86
2022-10-01T02:41:04.941Z,8.93
2022-10-01T02:42:11.484Z,8.90
2022-10-01T02:43:18.440Z,8.86
2022-10-01T02:44:28.662Z,8.84
2022-10-01T02:45:33.424Z,8.85
2022-10-01T02:47:16.982Z,8.76
2022-10-01T02:48:19.639Z,8.85
2022-10-01T02:49:21.938Z,8.80
2022-10-01T02:50:29.845Z,8.80
2022-10-01T02:52:09.230Z,8.75
2022-10-01T02:53:21.237Z,8.84
2022-10-01T02:54:35.485Z,8.76
2022-10-01T02:55:40.675Z,8.82
2022-10-01T02:57:01.749Z,8.78
2022-10-01T02:58:04.198Z,8.84
2022-10-01T02:59:07.784Z,8.90
2022-10-01T03:00:13.182Z,8.92
2022-10-01T03:01:15.381Z,8.96
2022-10-01T03:02:18.536Z,8.94
2022-10-01T03:03:20.790Z,8.93
2022-10-01T03:04:23.024Z,8.80
2022-10-01T03:05:26.250Z,8.74
2022-10-01T03:06:28.673Z,8.75
2022-10-01T03:07:38.114Z,8.75
2022-10-01T03:08:40.350Z,8.72
2022-10-01T03:09:42.616Z,8.62
2022-10-01T03:10:46.896Z,8.74
2022-10-01T03:11:49.264Z,8.83
2022-10-01T03:12:51.507Z,8.84
2022-10-01T03:13:54.102Z,8.82
2022-10-01T03:14:56.372Z,8.91
2022-10-01T03:15:58.617Z,8.92
2022-10-01T03:17:00.856Z,8.92
2022-10-01T03:18:03.103Z,8.88
2022-10-01T03:19:05.362Z,8.97
2022-10-01T03:20:08.056Z,8.91
2022-10-01T03:21:10.308Z,8.98
2022-10-01T03:22:15.736Z,9.06
2022-10-01T03:23:17.957Z,9.04
2022-10-01T03:24:20.140Z,9.02
2022-10-01T03:25:22.355Z,9.07
2022-10-01T03:26:26.828Z,9.15
2022-10-01T03:27:29.123Z,9.19
2022-10-01T03:28:31.299Z,9.18
2022-10-01T03:29:33.629Z,9.18
2022-10-01T03:30:35.887Z,9.16
2022-10-01T03:31:38.519Z,9.20
2022-10-01T03:32:40.906Z,9.20
2022-10-01T03:33:43.157Z,9.19
2022-10-01T03:34:45.380Z,9.26
2022-10-01T03:35:47.606Z,9.32
2022-10-01T03:36:52.119Z,9.34
2022-10-01T03:37:54.326Z,9.29
2022-10-01T03:38:56.595Z,9.28
2022-10-01T03:39:58.784Z,9.28
2022-10-01T03:41:00.983Z,9.36
2022-10-01T03:42:04.228Z,9.40
2022-10-01T03:43:06.760Z,9.39
2022-10-01T03:44:08.929Z,9.38
2022-10-01T03:45:11.198Z,9.44
2022-10-01T03:46:13.487Z,9.40
2022-10-01T03:47:15.875Z,9.35
2022-10-01T03:48:18.282Z,9.40
2022-10-01T03:49:20.699Z,9.38
2022-10-01T03:50:22.942Z,9.39
2022-10-01T03:51:25.136Z,9.49
2022-10-01T03:52:27.508Z,9.48
2022-10-01T03:53:31.241Z,9.46
2022-10-01T03:54:33.740Z,9.55
2022-10-01T03:55:36.099Z,9.48
2022-10-01T03:56:40.776Z,9.44
2022-10-01T03:57:43.418Z,9.42
2022-10-01T03:58:45.611Z,9.47
2022-10-01T03:59:47.826Z,9.51
2022-10-01T04:00:51.266Z,9.48
2022-10-01T04:01:54.008Z,9.48
2022-10-01T04:02:56.302Z,9.49
2022-10-01T04:03:59.019Z,9.48
2022-10-01T04:05:01.344Z,9.48
2022-10-01T04:06:03.643Z,9.48
2022-10-01T04:07:05.787Z,9.61
2022-10-01T04:08:08.234Z,9.57
2022-10-01T04:09:10.406Z,9.51
2022-10-01T04:10:12.644Z,9.57
2022-10-01T04:11:14.858Z,9.64
2022-10-01T04:12:17.693Z,9.57
2022-10-01T04:13:19.898Z,9.65
2022-10-01T04:14:22.124Z,9.63
2022-10-01T04:15:24.962Z,9.66
2022-10-01T04:16:27.231Z,9.73
2022-10-01T04:17:29.424Z,9.66
2022-10-01T04:18:31.687Z,9.58
2022-10-01T04:19:33.940Z,9.61
2022-10-01T04:20:37.534Z,9.55
2022-10-01T04:21:39.734Z,9.53
2022-10-01T04:22:42.848Z,9.54
2022-10-01T04:23:45.110Z,9.54
2022-10-01T04:24:47.282Z,9.60
2022-10-01T04:25:49.607Z,9.68
2022-10-01T04:26:52.026Z,9.68
2022-10-01T04:27:57.302Z,9.67
2022-10-01T04:28:59.564Z,9.51
2022-10-01T04:30:01.848Z,9.55
2022-10-01T04:31:23.053Z,9.63
2022-10-01T04:32:25.285Z,9.66
2022-10-01T04:33:27.452Z,9.66
2022-10-01T04:34:49.033Z,9.69
2022-10-01T04:35:51.180Z,9.69
2022-10-01T04:36:53.334Z,9.76
2022-10-01T04:37:58.316Z,9.77
2022-10-01T04:39:02.488Z,9.80
2022-10-01T04:40:06.088Z,9.82
2022-10-01T04:41:09.232Z,9.82
2022-10-01T04:42:13.263Z,9.83
2022-10-01T04:43:15.511Z,9.84
2022-10-01T04:44:17.623Z,9.92
2022-10-01T04:45:19.896Z,9.93
2022-10-01T04:46:22.121Z,9.92
2022-10-01T04:47:24.371Z,9.94
2022-10-01T04:48:26.637Z,9.97
2022-10-01T04:49:29.202Z,10.01
2022-10-01T04:50:31.730Z,10.05
2022-10-01T04:51:34.179Z,10.09
2022-10-01T04:52:36.882Z,10.18
2022-10-01T04:53:39.112Z,10.23
2022-10-01T04:54:41.327Z,10.18
2022-10-01T04:55:43.714Z,10.21
2022-10-01T04:56:45.916Z,10.21
2022-10-01T04:57:48.408Z,10.16
2022-10-01T04:58:50.722Z,10.18
2022-10-01T04:59:53.030Z,10.19
2022-10-01T05:00:58.548Z,10.17
2022-10-01T05:02:03.942Z,10.09
2022-10-01T05:03:06.259Z,10.21
2022-10-01T05:04:08.733Z,10.28
2022-10-01T05:05:10.954Z,10.34
2022-10-01T05:06:13.171Z,10.37
2022-10-01T05:07:15.416Z,10.37
2022-10-01T05:08:17.631Z,10.41
2022-10-01T05:09:19.787Z,10.46
2022-10-01T05:10:22.965Z,10.54
2022-10-01T05:11:25.185Z,10.39
2022-10-01T05:12:28.367Z,10.39
2022-10-01T05:13:31.796Z,10.31
2022-10-01T05:14:34.337Z,10.22
2022-10-01T05:15:36.596Z,10.30
2022-10-01T05:16:38.903Z,10.27
2022-10-01T05:17:41.111Z,10.28
2022-10-01T05:18:43.469Z,10.14
2022-10-01T05:19:46.619Z,9.97
2022-10-01T05:20:48.812Z,10.07
2022-10-01T05:21:51.875Z,10.11
2022-10-01T05:22:54.817Z,10.07
2022-10-01T05:23:57.010Z,10.04
2022-10-01T05:25:00.227Z,10.10
2022-10-01T05:26:05.516Z,10.19
2022-10-01T05:27:12.082Z,10.23
2022-10-01T05:28:19.860Z,10.21
2022-10-01T05:29:24.465Z,10.19
2022-10-01T05:30:26.637Z,10.18
2022-10-01T05:31:28.856Z,10.20
2022-10-01T05:32:31.364Z,10.19
2022-10-01T05:33:34.117Z,10.09
2022-10-01T05:34:36.464Z,9.95
2022-10-01T05:35:40.872Z,9.80
2022-10-01T05:36:43.044Z,9.79
2022-10-01T05:37:45.274Z,9.78
2022-10-01T05:38:52.281Z,9.80
2022-10-01T05:39:54.545Z,9.73
2022-10-01T05:40:56.738Z,9.72
2022-10-01T05:42:03.918Z,9.73
2022-10-01T05:43:09.300Z,9.71
2022-10-01T05:44:11.527Z,9.73
2022-10-01T05:45:13.949Z,9.77
2022-10-01T05:46:16.214Z,9.73
2022-10-01T05:47:20.200Z,9.76
2022-10-01T05:48:22.378Z,9.78
2022-10-01T05:49:25.332Z,9.81
2022-10-01T05:50:31.463Z,9.88
2022-10-01T05:51:36.029Z,9.93
2022-10-01T05:52:38.476Z,9.96
2022-10-01T05:53:40.699Z,9.92
2022-10-01T05:54:42.972Z,9.87
2022-10-01T05:55:45.226Z,9.84
2022-10-01T05:56:47.395Z,9.91
2022-10-01T05:57:57.496Z,9.90
2022-10-01T05:58:59.976Z,9.91
2022-10-01T06:00:02.351Z,9.98
2022-10-01T06:01:14.237Z,10.01
2022-10-01T06:02:16.575Z,10.04
2022-10-01T06:03:18.911Z,10.19
2022-10-01T06:04:21.169Z,10.22
2022-10-01T06:05:23.717Z,10.25
2022-10-01T06:06:27.527Z,10.12
2022-10-01T06:07:32.605Z,10.21
2022-10-01T06:08:35.558Z,10.21
2022-10-01T06:09:37.720Z,10.18
2022-10-01T06:10:40.353Z,10.18
2022-10-01T06:11:42.553Z,10.19
2022-10-01T06:12:45.038Z,10.18
2022-10-01T06:13:47.404Z,10.26
2022-10-01T06:14:49.588Z,10.32
2022-10-01T06:15:52.827Z,10.39
2022-10-01T06:16:55.124Z,10.39
2022-10-01T06:18:01.973Z,10.39
2022-10-01T06:19:04.228Z,10.37
2022-10-01T06:20:06.689Z,10.35
2022-10-01T06:21:09.985Z,10.39
2022-10-01T06:22:12.165Z,10.39
2022-10-01T06:23:14.375Z,10.38
2022-10-01T06:24:16.548Z,10.43
2022-10-01T06:25:18.705Z,10.39
2022-10-01T06:26:21.267Z,10.37
2022-10-01T06:27:23.421Z,10.40
2022-10-01T06:28:25.780Z,10.41
2022-10-01T06:29:27.988Z,10.50
2022-10-01T06:30:32.282Z,10.49
2022-10-01T06:31:34.764Z,10.49
2022-10-01T06:32:37.137Z,10.53
2022-10-01T06:33:39.327Z,10.48
2022-10-01T06:34:41.508Z,10.59
2022-10-01T06:35:53.076Z,10.59
2022-10-01T06:36:55.409Z,10.52
2022-10-01T06:37:58.122Z,10.50
2022-10-01T06:39:00.439Z,10.54
2022-10-01T06:40:02.734Z,10.53
2022-10-01T06:41:05.322Z,10.46
2022-10-01T06:42:07.564Z,10.26
2022-10-01T06:43:10.353Z,10.40
2022-10-01T06:44:12.863Z,10.43
2022-10-01T06:45:16.067Z,10.37
2022-10-01T06:46:18.501Z,10.35
2022-10-01T06:47:20.760Z,10.25
2022-10-01T06:48:23.330Z,10.29
2022-10-01T06:49:26.673Z,10.25
2022-10-01T06:50:29.426Z,10.35
2022-10-01T06:51:50.317Z,10.41
2022-10-01T06:52:52.877Z,10.51
2022-10-01T06:53:55.099Z,10.53
2022-10-01T06:54:57.444Z,10.52
2022-10-01T06:56:07.775Z,10.56
2022-10-01T06:57:10.032Z,10.52
2022-10-01T06:58:21.056Z,10.41
2022-10-01T06:59:23.303Z,10.38
2022-10-01T07:00:26.669Z,10.36
2022-10-01T07:01:29.025Z,10.34
2022-10-01T07:02:32.384Z,10.37
2022-10-01T07:03:35.759Z,10.41
2022-10-01T07:04:38.258Z,10.43
2022-10-01T07:05:40.865Z,10.53
2022-10-01T07:06:43.079Z,10.48
2022-10-01T07:07:45.342Z,10.26
2022-10-01T07:08:50.591Z,10.18
2022-10-01T07:09:56.417Z,10.25
2022-10-01T07:11:03.383Z,10.28
2022-10-01T07:12:06.336Z,10.31
2022-10-01T07:13:14.027Z,10.27
2022-10-01T07:14:16.336Z,10.20
2022-10-01T07:15:22.778Z,10.24
2022-10-01T07:16:25.147Z,10.28
2022-10-01T07:17:27.550Z,10.34
2022-10-01T07:18:29.762Z,10.25
2022-10-01T07:19:32.152Z,10.22
2022-10-01T07:20:39.338Z,10.33
2022-10-01T07:21:41.618Z,10.27
2022-10-01T07:22:44.420Z,10.31
2022-10-01T07:23:47.994Z,10.30
2022-10-01T07:24:51.483Z,10.23
2022-10-01T07:25:53.714Z,10.26
2022-10-01T07:26:56.026Z,10.28
2022-10-01T07:28:01.178Z,10.39
2022-10-01T07:29:04.595Z,10.44
2022-10-01T07:30:07.526Z,10.43
2022-10-01T07:31:11.392Z,10.45
2022-10-01T07:32:13.806Z,10.32
2022-10-01T07:33:18.884Z,10.22
2022-10-01T07:34:22.224Z,10.45
2022-10-01T07:35:24.676Z,10.49
2022-10-01T07:36:26.883Z,10.36
2022-10-01T07:37:29.211Z,10.36
2022-10-01T07:38:33.374Z,10.29
2022-10-01T07:39:36.622Z,10.48
2022-10-01T07:40:38.853Z,10.39
2022-10-01T07:41:42.746Z,10.45
2022-10-01T07:42:55.794Z,10.44
2022-10-01T07:43:58.060Z,10.52
2022-10-01T07:45:02.025Z,10.54
2022-10-01T07:46:07.092Z,10.42
2022-10-01T07:47:09.388Z,10.38
2022-10-01T07:48:11.581Z,10.44
2022-10-01T07:49:14.982Z,10.53
2022-10-01T07:50:17.266Z,10.50
2022-10-01T07:51:19.504Z,10.54
2022-10-01T07:52:21.847Z,10.53
2022-10-01T07:53:25.196Z,10.60
2022-10-01T07:54:27.421Z,10.69
2022-10-01T07:55:30.703Z,10.53
2022-10-01T07:56:32.940Z,10.53
2022-10-01T07:57:35.200Z,10.53
2022-10-01T07:58:37.543Z,10.59
2022-10-01T07:59:40.846Z,10.55
2022-10-01T08:00:43.473Z,10.60
2022-10-01T08:01:49.709Z,10.64
2022-10-01T08:02:55.840Z,10.66
2022-10-01T08:03:58.114Z,10.65
2022-10-01T08:05:18.249Z,10.79
2022-10-01T08:06:25.423Z,10.77
2022-10-01T08:07:28.099Z,10.90
2022-10-01T08:08:31.359Z,10.90
2022-10-01T08:09:33.799Z,10.92
2022-10-01T08:10:38.112Z,11.00
2022-10-01T08:11:40.935Z,10.97
2022-10-01T08:12:43.798Z,10.97
2022-10-01T08:13:46.032Z,11.06
2022-10-01T08:14:48.408Z,11.07
2022-10-01T08:15:53.544Z,11.09
2022-10-01T08:16:56.697Z,11.08
2022-10-01T08:18:02.582Z,11.27
2022-10-01T08:19:05.018Z,11.11
2022-10-01T08:20:08.795Z,11.08
2022-10-01T08:21:11.014Z,10.96
2022-10-01T08:22:13.334Z,11.01
2022-10-01T08:23:17.046Z,10.94
2022-10-01T08:24:19.981Z,11.04
2022-10-01T08:25:22.268Z,11.09
2022-10-01T08:26:24.567Z,11.08
2022-10-01T08:27:27.747Z,11.02
2022-10-01T08:28:30.118Z,11.06
2022-10-01T08:29:34.258Z,10.95
2022-10-01T08:30:39.827Z,11.04
2022-10-01T08:31:42.188Z,11.07
2022-10-01T08:32:44.487Z,11.24
2022-10-01T08:33:46.898Z,11.09
2022-10-01T08:34:53.324Z,11.18
2022-10-01T08:36:02.793Z,11.13
2022-10-01T08:37:05.301Z,11.12
2022-10-01T08:38:08.056Z,11.03
2022-10-01T08:39:12.645Z,11.11
2022-10-01T08:40:15.070Z,11.06
2022-10-01T08:41:29.045Z,11.06
2022-10-01T08:42:49.628Z,11.23
2022-10-01T08:43:52.958Z,11.12
2022-10-01T08:44:55.293Z,11.28
2022-10-01T08:46:04.420Z,11.21
2022-10-01T08:47:18.409Z,11.20
2022-10-01T08:48:38.627Z,11.35
2022-10-01T08:49:50.815Z,11.30
2022-10-01T08:51:04.871Z,11.33
2022-10-01T08:52:24.795Z,11.36
2022-10-01T08:53:55.084Z,11.33
2022-10-01T08:55:07.731Z,11.35
2022-10-01T08:56:24.323Z,11.40
2022-10-01T08:57:34.681Z,11.27
2022-10-01T08:58:45.279Z,11.32
2022-10-01T08:59:58.735Z,11.22
2022-10-01T09:01:01.107Z,11.23
2022-10-01T09:02:15.491Z,11.24
2022-10-01T09:03:18.691Z,11.24
2022-10-01T09:04:20.932Z,11.27
2022-10-01T09:05:36.282Z,11.37
2022-10-01T09:06:38.530Z,11.34
2022-10-01T09:08:08.086Z,11.20
2022-10-01T09:09:22.180Z,11.21
2022-10-01T09:10:33.106Z,11.16
2022-10-01T09:11:47.093Z,11.24
2022-10-01T09:13:04.359Z,11.14
2022-10-01T09:14:34.597Z,11.23
2022-10-01T09:16:08.607Z,11.09
2022-10-01T09:17:37.262Z,11.15
2022-10-01T09:19:15.929Z,11.24
2022-10-01T09:20:27.143Z,11.00
2022-10-01T09:21:58.301Z,11.03
2022-10-01T09:23:15.277Z,11.02
2022-10-01T09:24:40.573Z,11.01
2022-10-01T09:25:46.037Z,11.03
2022-10-01T09:26:49.148Z,11.00
2022-10-01T09:27:58.348Z,11.06
2022-10-01T09:29:02.176Z,11.23
2022-10-01T09:30:18.536Z,11.18
2022-10-01T09:31:33.707Z,11.08
2022-10-01T09:32:41.897Z,11.12
2022-10-01T09:34:11.739Z,11.03
2022-10-01T09:35:47.044Z,11.11
2022-10-01T09:37:15.293Z,11.08
2022-10-01T09:38:24.601Z,11.08
2022-10-01T09:39:35.017Z,11.17
2022-10-01T09:40:49.603Z,11.17
2022-10-01T09:41:52.135Z,11.20
2022-10-01T09:42:54.557Z,11.18
2022-10-01T09:43:57.048Z,11.19
2022-10-01T09:44:59.946Z,11.13
2022-10-01T09:46:07.117Z,11.13
2022-10-01T09:47:20.871Z,11.07
2022-10-01T09:48:28.735Z,11.05
2022-10-01T09:49:36.226Z,11.06
2022-10-01T09:50:43.246Z,11.20
2022-10-01T09:51:49.871Z,11.17
2022-10-01T09:52:53.482Z,11.10
2022-10-01T09:54:17.133Z,11.15
2022-10-01T09:55:22.100Z,11.16
2022-10-01T09:56:29.538Z,11.10
2022-10-01T09:57:43.117Z,11.19
2022-10-01T09:58:52.744Z,11.25
2022-10-01T10:00:04.240Z,11.29
2022-10-01T10:01:18.187Z,11.33
2022-10-01T10:02:27.895Z,11.35
2022-10-01T10:03:31.880Z,11.29
2022-10-01T10:04:34.397Z,11.33
2022-10-01T10:05:49.312Z,11.37
2022-10-01T10:06:59.892Z,11.40
2022-10-01T10:08:13.021Z,11.43
2022-10-01T10:09:18.641Z,11.52
2022-10-01T10:10:26.238Z,11.51
2022-10-01T10:11:31.828Z,11.45
2022-10-01T10:12:34.755Z,11.57
2022-10-01T10:13:41.307Z,11.70
2022-10-01T10:14:44.815Z,11.80
2022-10-01T10:15:52.643Z,11.90
2022-10-01T10:16:56.608Z,11.98
2022-10-01T10:18:19.252Z,11.96
2022-10-01T10:19:28.068Z,12.02
2022-10-01T10:20:39.624Z,12.13
2022-10-01T10:21:52.067Z,12.22
2022-10-01T10:22:54.317Z,12.17
2022-10-01T10:23:59.397Z,12.22
2022-10-01T10:25:12.246Z,12.20
2022-10-01T10:26:20.245Z,12.19
2022-10-01T10:27:29.046Z,12.29
2022-10-01T10:28:46.660Z,12.32
2022-10-01T10:29:48.939Z,12.42
2022-10-01T10:30:54.547Z,12.33
2022-10-01T10:31:58.256Z,12.21
2022-10-01T10:33:07.586Z,12.13
2022-10-01T10:34:18.594Z,12.27
2022-10-01T10:35:25.644Z,12.28
2022-10-01T10:36:34.170Z,12.25
2022-10-01T10:37:42.292Z,12.42
2022-10-01T10:38:50.920Z,12.40
2022-10-01T10:39:54.356Z,12.40
2022-10-01T10:40:57.639Z,12.53
2022-10-01T10:42:01.095Z,12.66
2022-10-01T10:43:03.352Z,12.75
2022-10-01T10:44:07.615Z,12.70
2022-10-01T10:45:17.814Z,12.57
2022-10-01T10:46:36.084Z,12.62
2022-10-01T10:47:45.291Z,12.77
2022-10-01T10:48:58.647Z,12.78
2022-10-01T10:50:05.381Z,12.68
2022-10-01T10:51:08.093Z,12.78
2022-10-01T10:52:29.668Z,12.88
2022-10-01T10:53:46.273Z,12.97
2022-10-01T10:54:50.362Z,13.03
2022-10-01T10:56:01.021Z,13.10
2022-10-01T10:57:28.027Z,12.96
2022-10-01T10:58:33.380Z,12.83
2022-10-01T10:59:35.667Z,12.96
2022-10-01T11:00:47.725Z,12.97
2022-10-01T11:01:50.745Z,12.87
2022-10-01T11:02:58.817Z,12.84
2022-10-01T11:04:01.544Z,13.01
2022-10-01T11:05:18.104Z,12.92
2022-10-01T11:06:20.406Z,12.91
2022-10-01T11:07:24.444Z,12.98
2022-10-01T11:08:29.035Z,12.71
2022-10-01T11:09:52.347Z,12.52
2022-10-01T11:11:32.390Z,12.43
2022-10-01T11:12:50.385Z,12.58
2022-10-01T11:14:24.075Z,12.49
2022-10-01T11:15:45.160Z,12.47
2022-10-01T11:17:24.744Z,12.49
2022-10-01T11:18:38.809Z,12.54
2022-10-01T11:20:09.009Z,12.56
2022-10-01T11:21:29.179Z,12.54
2022-10-01T11:22:43.718Z,12.49
2022-10-01T11:24:04.103Z,12.35
2022-10-01T11:25:34.320Z,12.36
2022-10-01T11:26:55.376Z,12.37
2022-10-01T11:28:18.537Z,12.48
2022-10-01T11:29:29.723Z,12.56
2022-10-01T11:30:37.333Z,12.69
2022-10-01T11:32:02.975Z,12.69
2022-10-01T11:33:22.188Z,12.80
2022-10-01T11:34:43.451Z,12.60
2022-10-01T11:36:16.169Z,12.58
2022-10-01T11:37:35.155Z,12.69
2022-10-01T11:38:46.923Z,12.58
2022-10-01T11:39:53.699Z,12.62
2022-10-01T11:41:05.266Z,12.68
2022-10-01T11:42:16.974Z,12.83
2022-10-01T11:43:27.809Z,12.71
2022-10-01T11:44:35.594Z,12.67
2022-10-01T11:45:45.573Z,12.83
2022-10-01T11:47:11.555Z,12.93
2022-10-01T11:48:25.513Z,13.00
2022-10-01T11:50:03.634Z,13.19
2022-10-01T11:51:15.602Z,13.16
2022-10-01T11:52:32.659Z,13.17
2022-10-01T11:54:01.137Z,13.25
2022-10-01T11:55:46.561Z,13.38
2022-10-01T11:57:11.299Z,13.42
2022-10-01T11:58:43.559Z,13.43
2022-10-01T11:59:52.873Z,13.38
2022-10-01T12:01:05.785Z,13.24
2022-10-01T12:02:30.520Z,13.32
2022-10-01T12:03:48.833Z,13.36
2022-10-01T12:05:06.792Z,13.31
2022-10-01T12:06:14.881Z,13.37
2022-10-01T12:07:29.518Z,13.46
2022-10-01T12:08:36.707Z,13.51
2022-10-01T12:09:51.110Z,13.60
2022-10-01T12:11:02.232Z,13.77
2022-10-01T12:12:11.903Z,13.76
2022-10-01T12:13:34.238Z,13.69
2022-10-01T12:14:55.273Z,13.73
2022-10-01T12:16:10.458Z,13.55
2022-10-01T12:17:38.551Z,13.62
2022-10-01T12:19:00.880Z,13.46
2022-10-01T12:20:05.824Z,13.55
2022-10-01T12:21:17.198Z,13.52
2022-10-01T12:22:38.027Z,13.55
2022-10-01T12:23:51.532Z,13.50
2022-10-01T12:24:54.258Z,13.58
2022-10-01T12:26:15.365Z,13.74
2022-10-01T12:27:37.017Z,13.88
2022-10-01T12:28:54.503Z,13.85
2022-10-01T12:30:19.406Z,13.83
2022-10-01T12:32:01.071Z,13.66
2022-10-01T12:33:27.933Z,13.73
2022-10-01T12:34:54.357Z,13.79
2022-10-01T12:36:07.268Z,13.62
2022-10-01T12:37:40.255Z,13.63
2022-10-01T12:39:27.574Z,13.59
2022-10-01T12:41:14.697Z,13.66
2022-10-01T12:42:31.163Z,13.63
2022-10-01T12:43:49.266Z,13.64
2022-10-01T12:44:57.547Z,13.67
2022-10-01T12:46:27.449Z,13.64
2022-10-01T12:47:47.323Z,13.63
2022-10-01T12:48:56.814Z,13.86
2022-10-01T12:50:12.909Z,13.85
2022-10-01T12:51:35.857Z,13.88
2022-10-01T12:53:16.361Z,14.10
2022-10-01T12:54:24.469Z,14.27
2022-10-01T12:56:07.232Z,14.53
2022-10-01T12:57:43.167Z,14.61
2022-10-01T12:59:10.280Z,14.73
2022-10-01T13:00:24.465Z,14.87
2022-10-01T13:01:36.335Z,14.94
2022-10-01T13:03:04.510Z,15.10
2022-10-01T13:04:31.546Z,14.78
2022-10-01T13:05:53.897Z,14.72
2022-10-01T13:07:35.075Z,15.01
2022-10-01T13:08:55.218Z,14.78
2022-10-01T13:10:23.021Z,14.92
2022-10-01T13:11:50.371Z,14.99
2022-10-01T13:12:58.367Z,15.02
2022-10-01T13:14:03.326Z,15.07
2022-10-01T13:15:16.122Z,15.09
2022-10-01T13:16:30.754Z,15.16
2022-10-01T13:18:03.096Z,15.56
2022-10-01T13:19:36.812Z,15.74
2022-10-01T13:21:05.701Z,15.59
2022-10-01T13:22:38.276Z,15.51
2022-10-01T13:24:00.748Z,15.34
2022-10-01T13:25:36.192Z,15.11
2022-10-01T13:26:50.138Z,15.17
2022-10-01T13:27:58.204Z,15.00
2022-10-01T13:29:28.498Z,15.06
2022-10-01T13:30:43.849Z,15.23
2022-10-01T13:32:03.944Z,15.49
2022-10-01T13:33:31.988Z,15.34
2022-10-01T13:34:41.014Z,15.40
2022-10-01T13:35:54.847Z,15.61
2022-10-01T13:36:57.053Z,15.37
2022-10-01T13:37:59.271Z,15.50
2022-10-01T13:39:01.590Z,15.74
2022-10-01T13:40:25.035Z,16.05
2022-10-01T13:41:30.695Z,16.15
2022-10-01T13:42:46.008Z,16.18
2022-10-01T13:44:04.193Z,16.17
2022-10-01T13:45:08.684Z,16.01
2022-10-01T13:46:11.427Z,16.06
2022-10-01T13:47:19.170Z,16.11
2022-10-01T13:48:24.666Z,16.05
2022-10-01T13:49:30.021Z,15.96
2022-10-01T13:50:32.453Z,16.01
2022-10-01T13:51:36.914Z,16.08
2022-10-01T13:52:39.238Z,16.19
2022-10-01T13:53:41.454Z,16.24
2022-10-01T13:54:50.324Z,15.99
2022-10-01T13:55:54.178Z,16.10
2022-10-01T13:57:07.994Z,16.03
2022-10-01T13:58:34.637Z,15.92
2022-10-01T13:59:37.779Z,15.72
2022-10-01T14:00:54.536Z,15.57
2022-10-01T14:01:56.804Z,15.85
2022-10-01T14:03:33.631Z,15.89
2022-10-01T14:04:41.951Z,15.96
2022-10-01T14:05:44.639Z,15.95
2022-10-01T14:06:56.929Z,16.31
2022-10-01T14:08:11.801Z,16.57
2022-10-01T14:09:20.569Z,16.34
2022-10-01T14:10:33.836Z,16.36
2022-10-01T14:11:56.326Z,16.20
2022-10-01T14:13:21.462Z,16.09
2022-10-01T14:14:52.223Z,16.11
2022-10-01T14:16:02.552Z,16.27
2022-10-01T14:17:06.425Z,16.34
2022-10-01T14:18:19.247Z,16.65
2022-10-01T14:19:24.148Z,16.42
2022-10-01T14:20:32.486Z,16.38
2022-10-01T14:21:49.548Z,16.35
2022-10-01T14:23:11.723Z,16.47
2022-10-01T14:24:16.460Z,17.21
2022-10-01T14:25:54.240Z,17.41
2022-10-01T14:27:22.681Z,16.91
2022-10-01T14:28:33.668Z,17.00
2022-10-01T14:29:44.572Z,16.75
2022-10-01T14:31:04.030Z,16.32
2022-10-01T14:32:27.326Z,16.23
2022-10-01T14:33:41.385Z,16.30
2022-10-01T14:34:52.492Z,16.39
2022-10-01T14:36:08.536Z,16.32
2022-10-01T14:37:17.642Z,16.57
2022-10-01T14:38:21.366Z,16.44
2022-10-01T14:39:29.052Z,16.52
2022-10-01T14:40:40.706Z,16.66
2022-10-01T14:41:43.886Z,16.79
2022-10-01T14:42:59.198Z,17.10
2022-10-01T14:44:01.926Z,17.59
2022-10-01T14:45:15.495Z,17.37
2022-10-01T14:46:18.703Z,17.59
2022-10-01T14:47:25.259Z,17.25
2022-10-01T14:48:32.600Z,17.14
2022-10-01T14:49:34.813Z,16.91
2022-10-01T14:50:38.146Z,17.16
2022-10-01T14:51:58.371Z,16.98
2022-10-01T14:53:00.610Z,17.07
2022-10-01T14:54:02.897Z,16.68
2022-10-01T14:55:13.575Z,16.57
2022-10-01T14:56:16.375Z,16.48